createdAt,value
2023-05-05T00:05:00.713Z,94295.96
2023-05-05T00:13:24.362Z,94281.33
2023-05-05T00:21:47.281Z,94263.53
2023-05-05T00:30:10.948Z,94244.23
2023-05-05T00:38:33.923Z,94218.48
2023-05-05T00:46:56.998Z,94200.10
2023-05-05T00:55:20.773Z,94183.65
2023-05-05T01:03:43.884Z,94164.46
2023-05-05T01:12:32.615Z,94144.22
2023-05-05T01:21:27.293Z,94115.98
2023-05-05T01:30:05.744Z,94081.48
2023-05-05T01:38:40.438Z,94045.94
2023-05-05T01:47:05.412Z,94056.95
2023-05-05T01:55:31.035Z,94088.58
2023-05-05T02:03:59.022Z,94077.09
2023-05-05T02:12:24.016Z,94062.34
2023-05-05T02:20:47.271Z,94047.29
2023-05-05T02:29:18.983Z,94025.02
2023-05-05T02:37:46.986Z,93985.19
2023-05-05T02:46:11.523Z,93955.27
2023-05-05T02:54:37.588Z,93959.89
2023-05-05T03:03:18.502Z,94006.40
2023-05-05T03:11:59.971Z,94061.79
2023-05-05T03:20:24.960Z,94087.70
2023-05-05T03:28:49.154Z,94091.83
2023-05-05T03:37:24.153Z,94092.18
2023-05-05T03:45:47.483Z,94096.89
2023-05-05T03:54:10.712Z,94117.16
2023-05-05T04:02:33.958Z,94150.63
2023-05-05T04:10:57.598Z,94188.02
2023-05-05T04:19:20.807Z,94248.30
2023-05-05T04:27:44.614Z,94348.86
2023-05-05T04:36:08.153Z,94474.74
2023-05-05T04:44:31.675Z,94580.58
2023-05-05T04:52:54.706Z,94665.41
2023-05-05T05:01:18.362Z,94764.48
2023-05-05T05:09:41.488Z,94847.39
2023-05-05T05:18:05.290Z,94939.94
2023-05-05T05:26:29.335Z,95083.17
2023-05-05T05:34:52.447Z,95240.46
2023-05-05T05:43:15.615Z,95438.42
2023-05-05T05:51:38.767Z,95846.95
2023-05-05T06:00:02.460Z,96434.20
2023-05-05T06:08:34.811Z,96728.45
2023-05-05T06:16:58.208Z,96921.23
2023-05-05T06:25:22.508Z,97201.14
2023-05-05T06:33:50.554Z,97465.98
2023-05-05T06:42:13.772Z,97720.48
2023-05-05T06:50:37.267Z,97842.67
2023-05-05T06:59:00.686Z,98034.45
2023-05-05T07:07:23.805Z,98377.77
2023-05-05T07:15:46.871Z,98746.83
2023-05-05T07:24:11.173Z,99039.03
2023-05-05T07:32:34.650Z,99244.98
2023-05-05T07:40:57.844Z,99386.98
2023-05-05T07:49:20.909Z,99540.41
2023-05-05T07:57:43.924Z,99605.92
2023-05-05T08:06:10.417Z,99591.75
2023-05-05T08:14:33.415Z,99538.94
2023-05-05T08:22:56.796Z,99621.83
2023-05-05T08:31:19.784Z,99545.52
2023-05-05T08:39:42.947Z,99544.13
2023-05-05T08:48:06.970Z,99475.60
2023-05-05T08:56:39.168Z,99338.07
2023-05-05T09:05:05.541Z,99516.15
2023-05-05T09:13:30.253Z,99724.30
2023-05-05T09:21:53.344Z,99814.15
2023-05-05T09:30:27.330Z,99788.48
2023-05-05T09:39:07.399Z,99370.52
2023-05-05T09:47:35.655Z,99074.73
2023-05-05T09:56:00.993Z,99142.00
2023-05-05T10:04:28.237Z,99137.77
2023-05-05T10:12:53.447Z,98795.23
2023-05-05T10:21:21.826Z,98501.88
2023-05-05T10:29:53.834Z,98279.02
2023-05-05T10:38:17.970Z,98116.61
2023-05-05T10:46:42.902Z,98319.77
2023-05-05T10:55:13.055Z,98640.54
2023-05-05T11:03:36.497Z,98895.24
2023-05-05T11:12:04.872Z,98961.91
2023-05-05T11:20:37.643Z,98728.91
2023-05-05T11:29:03.166Z,98489.20
2023-05-05T11:37:31.680Z,98237.54
2023-05-05T11:46:17.320Z,98048.21
2023-05-05T11:54:50.258Z,98025.28
2023-05-05T12:03:13.566Z,98214.70
2023-05-05T12:11:48.840Z,98443.77
2023-05-05T12:20:13.202Z,98573.40
2023-05-05T12:28:48.952Z,98478.17
2023-05-05T12:37:12.444Z,98560.94
2023-05-05T12:45:35.658Z,98588.52
2023-05-05T12:54:15.908Z,98308.82
2023-05-05T13:02:42.902Z,98047.69
2023-05-05T13:11:06.276Z,97883.85
2023-05-05T13:19:29.510Z,97859.91
2023-05-05T13:27:52.584Z,97876.58
2023-05-05T13:36:16.145Z,97668.63
2023-05-05T13:44:39.713Z,97556.28
2023-05-05T13:53:02.717Z,97555.38
2023-05-05T14:01:26.047Z,97508.91
2023-05-05T14:09:49.056Z,97624.19
2023-05-05T14:18:12.359Z,97690.98
2023-05-05T14:26:35.294Z,97546.98
2023-05-05T14:34:58.416Z,97458.88
2023-05-05T14:43:21.972Z,97559.63
2023-05-05T14:51:45.001Z,97391.64
2023-05-05T15:00:09.460Z,97328.25
2023-05-05T15:08:32.541Z,97401.19
2023-05-05T15:16:55.812Z,97355.31
2023-05-05T15:25:19.443Z,97337.86
2023-05-05T15:33:44.749Z,97378.71
2023-05-05T15:42:07.821Z,97330.77
2023-05-05T15:50:31.062Z,97229.45
2023-05-05T15:58:54.706Z,97080.20
2023-05-05T16:07:17.721Z,96939.20
2023-05-05T16:15:41.033Z,96828.27
2023-05-05T16:24:04.540Z,96730.62
2023-05-05T16:32:27.753Z,96655.11
2023-05-05T16:40:50.786Z,96563.49
2023-05-05T16:49:13.819Z,96496.79
2023-05-05T16:57:36.813Z,96461.00
2023-05-05T17:06:00.052Z,96413.45
2023-05-05T17:14:24.492Z,96331.23
2023-05-05T17:22:47.506Z,96245.90
2023-05-05T17:31:10.920Z,96158.27
2023-05-05T17:39:34.067Z,96089.80
2023-05-05T17:47:57.111Z,96023.80
2023-05-05T17:56:20.564Z,95966.98
2023-05-05T18:04:43.931Z,95913.64
2023-05-05T18:13:07.044Z,95860.37
2023-05-05T18:21:30.084Z,95806.48
2023-05-05T18:29:53.540Z,95755.60
2023-05-05T18:38:17.637Z,95706.23
2023-05-05T18:46:40.790Z,95664.45
2023-05-05T18:55:04.045Z,95626.20
2023-05-05T19:03:26.968Z,95590.86
2023-05-05T19:11:50.063Z,95557.19
2023-05-05T19:20:13.185Z,95517.16
2023-05-05T19:28:36.164Z,95483.48
2023-05-05T19:36:59.251Z,95447.48
2023-05-05T19:45:22.332Z,95418.44
2023-05-05T19:53:45.883Z,95380.85
2023-05-05T20:02:10.324Z,95347.30
2023-05-05T20:10:33.635Z,95306.78
2023-05-05T20:18:56.608Z,95276.59
2023-05-05T20:27:21.067Z,95244.85
2023-05-05T20:35:45.070Z,95210.32
2023-05-05T20:44:11.384Z,95181.61
2023-05-05T20:52:35.154Z,95148.55
2023-05-05T21:00:58.433Z,95101.15
2023-05-05T21:09:22.163Z,95056.00
2023-05-05T21:17:45.299Z,94992.12
2023-05-05T21:26:08.289Z,94924.06
2023-05-05T21:34:31.285Z,94866.30
2023-05-05T21:42:54.318Z,94816.92
2023-05-05T21:51:17.526Z,94775.96
2023-05-05T21:59:41.451Z,94734.05
2023-05-05T22:08:04.672Z,94689.50
2023-05-05T22:16:27.803Z,94668.19
2023-05-05T22:24:51.709Z,94641.66
2023-05-05T22:33:15.584Z,94599.98
2023-05-05T22:41:38.615Z,94553.14
2023-05-05T22:50:01.740Z,94514.95
2023-05-05T22:58:24.722Z,94512.78
2023-05-05T23:06:47.616Z,94505.64
2023-05-05T23:15:11.396Z,94472.25
2023-05-05T23:23:34.795Z,94455.98
2023-05-05T23:31:58.009Z,94435.92
2023-05-05T23:40:21.480Z,94400.20
2023-05-05T23:48:44.469Z,94370.02
2023-05-05T23:57:07.375Z,94323.40
